Terrebonne, OR (97760)

3:23 AM PDT on March 29, 2017 (GMT -0700)
| | Change Station

Elev -9999 ft 0.00 °N, 0.00 °E | Updated 37 seconds ago

Mostly Cloudy
Mostly Cloudy
°F
Feels Like °F
N
Wind Variable Wind from North
Gusts mph

Today
High -- | Low -- °F
--% Chance of Precip.
Yesterday
High -- | Low -- °F
Precip. -- in
Pressure 30.07 in
Visibility 10.0 miles
Clouds Few 6000 ft
Mostly Cloudy 8500 ft
Overcast 11000 ft
Dew Point Not available.
Humidity Not available.
Rainfall --
Snow Depth Not available.
6:50 AM 7:28 PM
New Moon, 2% visible
METAR KRDM 290956Z AUTO 20014G25KT 10SM FEW060 BKN085 OVC110 09/00 A3008 RMK AO2 RAB04E15 SLP183 P0000 T00890000
Pressure 30.07 in
Visibility 10.0 miles
Clouds Few 6000 ft
Mostly Cloudy 8500 ft
Overcast 11000 ft
Dew Point Not available.
Humidity Not available.
Rainfall --
Snow Depth Not available.
6:50 AM 7:28 PM
New Moon, 2% visible
METAR KRDM 290956Z AUTO 20014G25KT 10SM FEW060 BKN085 OVC110 09/00 A3008 RMK AO2 RAB04E15 SLP183 P0000 T00890000

Get Severe Weather Alerts

Thanks for signing up!

Be on the lookout for a verification email in your inbox.

You'll start receiving the daily forecast at 8 AM.

×

10-Day Weather Forecast

Almanac

Astronomy

Mar. 29, 2017 Rise Set
Actual Time
Civil Twilight
Nautical Twilight
Astronomical Twilight
Moon
Length of Visible Light
Length of Day
Tomorrow will be .
, % of the Moon is Illuminated

Today's Extremes

State Highs State Lows

Community

WunderPhotos

Upload Photos

1,962,540 photos uploaded!

WunderBlog® & News

Nearby

Air Quality

  Air Quality AQ Index Pollutant
Not available.

Snow Depth

Station Depth Elevation

Earthquake Activity

City Distance Mag. Time & Date
Minimum magnitude displayed is 2.5.

Earthquake Activity

City Distance Mag. Time & Date
Minimum magnitude displayed is 2.5.

Coastal Water Temperatures

Place Temperature

Stations

Nearby Weather Stations

Station Location Temp. Windchill Dew Point Humidity Wind Precip. Elev Updated Type
                   

Watches & Warnings

There are currently no watches in effect.